Time;durP1;ratioP1;P1;durP2;ratioP2;P2;SDS_P1;SDS_P2;PMS_P1;PMS_P2;Temp;Humidity;BMP_temperature;BMP_pressure;BME280_temperature;BME280_humidity;BME280_pressure;Samples;Min_cycle;Max_cycle;Signal;HPM_P1;HPM_P2
2021/11/30 00:01:29;;;;;;;12.57;7.27;;;;;;;9.13;61.34;99814.47;5155396;27;20164;-73
2021/11/30 00:03:54;;;;;;;9.53;6.93;;;;;;;9.28;61.81;99808.19;5154982;27;20324;-73
2021/11/30 00:06:20;;;;;;;12.87;8.00;;;;;;;9.38;61.95;99811.97;5156349;27;20176;-73
2021/11/30 00:08:47;;;;;;;13.27;7.90;;;;;;;9.27;60.95;99803.81;5156395;27;20339;-73
2021/11/30 00:11:12;;;;;;;11.67;7.60;;;;;;;8.83;62.39;99804.78;5156079;27;20168;-73
2021/11/30 00:13:40;;;;;;;11.07;7.80;;;;;;;9.44;61.51;99813.41;5156085;27;20668;-74
2021/11/30 00:16:05;;;;;;;14.63;8.40;;;;;;;9.08;61.97;99793.47;5155391;27;20184;-74
2021/11/30 00:18:34;;;;;;;12.97;7.90;;;;;;;8.93;62.31;99797.13;5154736;27;20164;-74
2021/11/30 00:21:01;;;;;;;13.43;8.60;;;;;;;9.31;62.14;99797.34;5155648;27;20168;-74
2021/11/30 00:23:27;;;;;;;13.63;9.30;;;;;;;8.83;62.82;99786.16;5154739;27;20197;-73
2021/11/30 00:25:52;;;;;;;14.33;7.90;;;;;;;8.35;62.89;99788.22;5155900;27;20279;-74
2021/11/30 00:28:17;;;;;;;15.83;8.47;;;;;;;8.68;63.04;99776.50;5137219;27;20168;-73
2021/11/30 00:30:42;;;;;;;18.40;8.53;;;;;;;8.42;64.05;99789.56;5156528;27;20567;-74
2021/11/30 00:33:09;;;;;;;14.33;9.30;;;;;;;9.20;62.13;99773.19;5154348;27;20542;-74
2021/11/30 00:35:34;;;;;;;16.43;8.50;;;;;;;9.35;60.98;99758.94;5154393;27;20259;-72
2021/11/30 00:38:00;;;;;;;12.93;9.17;;;;;;;8.91;62.05;99765.25;5154585;27;20181;-74
2021/11/30 00:40:26;;;;;;;16.13;9.13;;;;;;;9.37;61.12;99757.00;5154210;27;20213;-73
2021/11/30 00:42:52;;;;;;;16.83;9.20;;;;;;;9.45;61.79;99773.34;5154788;27;20173;-73
2021/11/30 00:45:19;;;;;;;17.10;9.30;;;;;;;9.18;61.88;99756.47;5154467;27;20178;-73
2021/11/30 00:47:56;;;;;;;14.17;9.00;;;;;;;9.46;61.92;99758.22;5154246;27;20175;-73
2021/11/30 00:50:24;;;;;;;17.33;10.07;;;;;;;8.89;63.38;99753.00;5155447;27;20155;-73
2021/11/30 00:52:49;;;;;;;15.67;9.27;;;;;;;8.84;62.55;99750.63;5153958;27;20226;-73
2021/11/30 00:55:15;;;;;;;16.93;9.47;;;;;;;8.71;63.06;99745.22;5154071;27;20200;-73
2021/11/30 00:57:41;;;;;;;13.97;9.20;;;;;;;9.04;62.42;99747.56;5155212;27;20514;-72
2021/11/30 01:00:13;;;;;;;17.53;10.47;;;;;;;9.37;63.29;99749.88;5153763;27;20172;-73
2021/11/30 01:02:38;;;;;;;15.80;9.83;;;;;;;8.68;63.31;99736.59;5153873;27;20245;-72
2021/11/30 01:05:05;;;;;;;13.70;9.40;;;;;;;9.37;62.88;99741.88;5155190;27;20236;-73
2021/11/30 01:07:33;;;;;;;16.03;9.40;;;;;;;8.76;63.40;99731.63;5155406;27;20172;-73
2021/11/30 01:09:58;;;;;;;14.97;9.63;;;;;;;8.68;63.21;99717.97;5153836;27;20175;-73
2021/11/30 01:12:23;;;;;;;17.87;9.57;;;;;;;9.12;63.01;99723.13;5155205;27;20579;-73
2021/11/30 01:14:49;;;;;;;15.20;9.67;;;;;;;8.83;63.34;99717.00;5155040;27;20272;-72
2021/11/30 01:17:14;;;;;;;16.33;10.63;;;;;;;9.06;62.55;99719.06;5155607;27;20255;-73
2021/11/30 01:19:39;;;;;;;13.90;9.97;;;;;;;8.94;63.69;99713.66;5155312;27;20163;-73
2021/11/30 01:22:05;;;;;;;15.93;10.07;;;;;;;9.16;63.16;99715.78;5154948;27;20173;-73
2021/11/30 01:24:31;;;;;;;17.67;10.17;;;;;;;9.03;63.24;99713.94;5154014;27;20211;-73
2021/11/30 01:26:56;;;;;;;16.33;9.40;;;;;;;8.18;65.76;99724.56;5153744;27;20172;-72
2021/11/30 01:29:21;;;;;;;16.03;10.37;;;;;;;8.59;64.18;99710.56;5153527;27;20245;-72
2021/11/30 01:31:46;;;;;;;16.33;10.13;;;;;;;8.59;64.47;99721.22;5153422;27;20199;-72
2021/11/30 01:34:12;;;;;;;18.83;9.27;;;;;;;8.24;64.96;99715.38;5153512;27;20199;-72
2021/11/30 01:36:37;;;;;;;15.07;10.07;;;;;;;9.36;62.86;99718.03;5153498;27;20176;-72
2021/11/30 01:39:05;;;;;;;16.63;10.40;;;;;;;9.49;62.64;99715.41;5155100;27;20217;-72
2021/11/30 01:41:33;;;;;;;17.13;10.97;;;;;;;8.47;64.62;99698.88;5153634;27;20172;-72
2021/11/30 01:44:00;;;;;;;17.07;11.20;;;;;;;9.03;63.78;99703.28;5153616;27;20761;-73
2021/11/30 01:46:40;;;;;;;17.10;11.20;;;;;;;9.54;62.89;99703.47;5154929;27;20302;-72
2021/11/30 01:49:19;;;;;;;16.47;9.90;;;;;;;9.16;63.25;99687.34;5154118;27;20186;-71
2021/11/30 01:51:44;;;;;;;17.00;9.57;;;;;;;8.48;64.40;99684.63;5154825;27;20184;-72
2021/11/30 01:54:09;;;;;;;17.33;10.87;;;;;;;9.23;63.59;99688.66;5156468;27;20246;-71
2021/11/30 01:56:35;;;;;;;18.10;10.73;;;;;;;8.91;64.34;99676.56;5159264;27;20676;-72
2021/11/30 01:59:00;;;;;;;16.67;11.07;;;;;;;9.77;62.13;99655.81;5159190;27;20172;-72
2021/11/30 02:01:25;;;;;;;17.00;10.63;;;;;;;9.88;62.10;99646.09;5141616;27;20299;-72
2021/11/30 02:03:51;;;;;;;17.50;10.77;;;;;;;9.47;63.04;99638.25;5158742;27;20249;-72
2021/11/30 02:06:16;;;;;;;17.50;10.77;;;;;;;9.70;61.92;99629.56;5159030;27;20221;-71
2021/11/30 02:08:42;;;;;;;15.70;10.13;;;;;;;9.65;62.62;99642.34;5157650;27;20170;-72
2021/11/30 02:11:08;;;;;;;16.50;11.07;;;;;;;9.36;62.50;99615.03;5158924;27;20211;-71
2021/11/30 02:13:33;;;;;;;16.63;10.13;;;;;;;9.72;61.56;99621.47;5158408;27;20196;-71
2021/11/30 02:16:01;;;;;;;15.87;10.27;;;;;;;9.67;63.03;99621.81;5158370;27;20172;-72
2021/11/30 02:18:26;;;;;;;17.43;10.53;;;;;;;9.23;63.69;99639.88;5157421;27;20255;-71
2021/11/30 02:20:57;;;;;;;19.57;11.63;;;;;;;8.91;64.65;99624.22;5158262;27;20717;-71
2021/11/30 02:25:57;;;;;;;16.97;11.00;;;;;;;9.11;63.67;99606.09;5157711;27;20668;-71
2021/11/30 02:28:22;;;;;;;17.63;11.10;;;;;;;9.11;62.97;99577.66;5158249;27;20195;-72
2021/11/30 02:30:47;;;;;;;19.20;11.97;;;;;;;9.29;63.33;99575.56;5157043;27;20181;-71
2021/11/30 02:33:13;;;;;;;20.17;12.33;;;;;;;8.66;64.48;99578.88;5158309;27;20204;-71
2021/11/30 02:35:38;;;;;;;22.70;12.23;;;;;;;8.81;64.11;99556.59;5158117;27;20194;-71
2021/11/30 02:38:08;;;;;;;20.60;12.40;;;;;;;9.63;63.67;99551.00;5158752;27;20176;-71
2021/11/30 02:40:34;;;;;;;21.73;12.97;;;;;;;9.06;64.36;99547.84;5158271;27;20164;-71
2021/11/30 02:42:59;;;;;;;24.40;13.23;;;;;;;9.16;64.09;99540.09;5156687;27;20222;-72
2021/11/30 02:45:24;;;;;;;19.80;12.47;;;;;;;8.26;66.16;99540.69;5158552;27;20168;-71
2021/11/30 02:47:49;;;;;;;24.00;13.47;;;;;;;8.86;64.60;99541.19;5157745;27;20217;-72
2021/11/30 02:50:15;;;;;;;26.37;14.30;;;;;;;9.07;64.20;99538.91;5139104;27;20548;-71
2021/11/30 02:52:40;;;;;;;20.30;13.50;;;;;;;8.49;65.78;99536.56;5157489;27;20274;-72
2021/11/30 02:55:05;;;;;;;23.60;14.03;;;;;;;9.59;62.75;99544.19;5157688;27;20222;-71
2021/11/30 02:57:31;;;;;;;23.33;13.17;;;;;;;8.96;64.67;99534.31;5156410;27;20183;-71
2021/11/30 02:59:56;;;;;;;21.73;12.97;;;;;;;8.50;65.26;99531.13;5157535;27;20172;-71
2021/11/30 03:02:24;;;;;;;21.40;13.00;;;;;;;8.99;63.70;99523.47;5157599;27;20171;-70
2021/11/30 03:04:52;;;;;;;19.83;12.77;;;;;;;8.97;64.36;99505.91;5155963;27;20537;-71
2021/11/30 03:07:20;;;;;;;24.07;13.43;;;;;;;9.03;63.78;99494.84;5156222;27;20510;-71
2021/11/30 03:09:45;;;;;;;18.77;12.90;;;;;;;8.53;64.67;99487.53;5158067;27;20177;-70
2021/11/30 03:12:12;;;;;;;20.10;13.57;;;;;;;8.86;65.32;99479.97;5157702;27;20199;-71
2021/11/30 03:14:38;;;;;;;22.40;13.87;;;;;;;8.76;64.92;99489.53;5156278;27;20200;-70
2021/11/30 03:17:04;;;;;;;24.17;12.23;;;;;;;8.00;66.20;99471.44;5157578;27;20163;-71
2021/11/30 03:19:29;;;;;;;25.73;14.80;;;;;;;8.90;64.66;99464.66;5157908;27;20314;-71
2021/11/30 03:21:56;;;;;;;22.63;14.00;;;;;;;9.26;64.69;99458.63;5156165;27;20567;-71
2021/11/30 03:24:21;;;;;;;25.27;14.87;;;;;;;8.28;66.62;99456.38;5138958;27;20594;-71
2021/11/30 03:26:47;;;;;;;23.20;14.33;;;;;;;8.67;65.39;99440.47;5157387;27;20168;-70
2021/11/30 03:29:12;;;;;;;22.33;14.17;;;;;;;8.69;65.05;99422.59;5157654;27;20244;-72
2021/11/30 03:34:09;;;;;;;23.27;14.03;;;;;;;8.33;66.14;99414.38;5155738;27;20256;-71
2021/11/30 03:36:35;;;;;;;22.47;14.03;;;;;;;8.55;66.06;99387.22;5155582;27;20581;-71
2021/11/30 03:39:03;;;;;;;24.93;13.13;;;;;;;8.49;65.96;99377.00;5156189;27;20247;-72
2021/11/30 03:41:31;;;;;;;26.23;14.60;;;;;;;8.76;64.64;99367.16;5155668;27;20168;-71
2021/11/30 03:43:57;;;;;;;25.97;15.43;;;;;;;8.80;65.76;99376.66;5155874;27;20278;-71
2021/11/30 03:46:22;;;;;;;20.93;12.80;;;;;;;8.44;66.17;99362.22;5155774;27;20188;-71
2021/11/30 03:48:47;;;;;;;24.73;14.80;;;;;;;9.31;63.98;99344.72;5156759;27;20172;-71
2021/11/30 03:51:13;;;;;;;19.93;14.17;;;;;;;8.65;66.40;99345.78;5156909;27;20274;-72
2021/11/30 03:53:38;;;;;;;24.53;13.83;;;;;;;8.34;65.96;99331.91;5155380;27;20200;-72
2021/11/30 03:56:04;;;;;;;24.73;14.90;;;;;;;8.45;65.25;99308.09;5156757;27;20168;-72
2021/11/30 03:58:29;;;;;;;20.17;13.60;;;;;;;8.95;64.36;99309.09;5137954;27;20207;-72
2021/11/30 04:00:54;;;;;;;22.30;14.57;;;;;;;8.76;64.45;99295.34;5156420;27;20175;-73
2021/11/30 04:03:22;;;;;;;21.17;13.20;;;;;;;9.49;63.93;99299.91;5156328;27;20207;-71
2021/11/30 04:05:47;;;;;;;21.50;14.50;;;;;;;9.31;64.69;99296.78;5154983;27;20180;-71
2021/11/30 04:08:12;;;;;;;28.53;15.83;;;;;;;9.08;64.89;99277.13;5155250;27;20195;-71
2021/11/30 04:10:38;;;;;;;24.67;15.40;;;;;;;9.75;63.99;99253.56;5156347;27;20176;-71
2021/11/30 04:13:03;;;;;;;23.53;15.63;;;;;;;9.38;64.51;99258.09;5156163;27;20204;-71
2021/11/30 04:15:28;;;;;;;22.40;14.17;;;;;;;9.12;64.40;99240.47;5156183;27;20207;-70
2021/11/30 04:17:54;;;;;;;19.57;12.83;;;;;;;8.61;67.02;99254.72;5155132;27;20168;-71
2021/11/30 04:20:19;;;;;;;23.37;13.77;;;;;;;8.39;66.96;99244.72;5156013;27;20204;-71
2021/11/30 04:22:45;;;;;;;22.57;13.87;;;;;;;8.70;66.63;99224.81;5155009;27;20175;-71
2021/11/30 04:25:11;;;;;;;24.50;15.10;;;;;;;9.07;66.33;99233.69;5155039;27;20180;-71
2021/11/30 04:27:37;;;;;;;23.47;15.27;;;;;;;9.86;63.35;99223.44;5154736;27;20183;-72
2021/11/30 04:30:03;;;;;;;27.77;16.77;;;;;;;9.13;65.91;99223.56;5154667;27;20172;-70
2021/11/30 04:32:29;;;;;;;26.57;15.23;;;;;;;9.07;66.06;99206.22;5156035;27;20206;-71
2021/11/30 04:34:54;;;;;;;21.90;14.53;;;;;;;9.20;65.66;99224.81;5154445;27;20255;-72
2021/11/30 04:37:20;;;;;;;21.50;13.70;;;;;;;9.02;65.29;99221.69;5156007;27;20174;-72
2021/11/30 04:39:45;;;;;;;24.83;15.90;;;;;;;8.93;66.19;99204.56;5154610;27;20172;-71
2021/11/30 04:42:10;;;;;;;23.60;15.10;;;;;;;9.15;65.59;99173.72;5155439;27;20187;-71
2021/11/30 04:44:38;;;;;;;19.73;12.43;;;;;;;8.33;66.44;99169.81;5137053;27;20621;-72
2021/11/30 04:47:07;;;;;;;24.20;13.90;;;;;;;8.66;65.64;99145.34;5154696;27;20549;-72
2021/11/30 04:51:59;;;;;;;21.37;13.53;;;;;;;8.90;64.46;99130.25;5154525;27;20184;-71
2021/11/30 04:54:25;;;;;;;23.97;15.40;;;;;;;9.30;64.06;99144.19;5154133;27;20196;-71
2021/11/30 04:56:51;;;;;;;23.17;14.40;;;;;;;9.13;64.82;99144.56;5155526;27;20172;-72
2021/11/30 04:59:20;;;;;;;23.20;15.80;;;;;;;9.29;64.69;99113.19;5154270;27;20609;-71
2021/11/30 05:01:46;;;;;;;22.63;15.23;;;;;;;9.24;64.25;99107.34;5154226;27;20175;-71
2021/11/30 05:04:12;;;;;;;21.50;13.67;;;;;;;9.05;64.22;99105.22;5153772;27;20616;-72
2021/11/30 05:06:38;;;;;;;24.13;14.53;;;;;;;9.33;64.05;99096.03;5155515;27;20176;-72
2021/11/30 05:09:04;;;;;;;23.03;14.83;;;;;;;9.32;63.84;99077.50;5154136;27;20180;-72
2021/11/30 05:11:30;;;;;;;27.03;15.50;;;;;;;8.98;63.96;99066.72;5153743;27;20172;-71
2021/11/30 05:13:55;;;;;;;23.80;15.67;;;;;;;9.07;64.16;99063.34;5136428;27;20200;-73
2021/11/30 05:16:21;;;;;;;28.33;16.43;;;;;;;8.62;64.78;99034.84;5153849;27;20172;-71
2021/11/30 05:18:46;;;;;;;23.90;16.70;;;;;;;9.16;64.68;99043.19;5154299;27;20229;-72
2021/11/30 05:21:11;;;;;;;25.77;16.13;;;;;;;8.76;65.97;99021.34;5153874;27;20172;-71
2021/11/30 05:23:38;;;;;;;26.97;17.03;;;;;;;8.74;65.30;99026.78;5153713;27;20653;-71
2021/11/30 05:26:05;;;;;;;27.87;17.30;;;;;;;9.16;65.50;99021.88;5155568;27;20199;-71
2021/11/30 05:28:31;;;;;;;28.20;18.07;;;;;;;9.99;63.47;99006.50;5153748;27;20178;-71
2021/11/30 05:30:56;;;;;;;27.23;18.07;;;;;;;8.57;70.65;99005.09;5153723;27;20173;-72
2021/11/30 05:33:21;;;;;;;27.87;16.20;;;;;;;8.58;67.57;98978.38;5153603;27;20200;-71
2021/11/30 05:35:47;;;;;;;28.73;17.30;;;;;;;8.53;75.25;98977.00;5153683;27;20194;-71
2021/11/30 05:38:12;;;;;;;34.90;19.10;;;;;;;9.32;66.03;98952.38;5154076;27;20211;-72
2021/11/30 05:40:41;;;;;;;30.10;17.80;;;;;;;10.37;64.08;98945.78;5154989;27;20267;-72
2021/11/30 05:43:07;;;;;;;31.67;18.00;;;;;;;9.76;64.18;98918.72;5153572;27;20642;-73
2021/11/30 05:45:32;;;;;;;32.77;18.47;;;;;;;9.77;64.33;98909.78;5156875;27;20176;-73
2021/11/30 05:47:57;;;;;;;30.50;18.57;;;;;;;9.03;65.75;98902.22;5156240;27;20172;-73
2021/11/30 05:50:23;;;;;;;32.67;18.50;;;;;;;9.11;65.00;98884.81;5154941;27;20182;-73
2021/11/30 05:52:48;;;;;;;29.73;18.73;;;;;;;9.58;64.71;98867.75;5154872;27;20605;-74
2021/11/30 05:55:14;;;;;;;29.47;17.93;;;;;;;9.20;65.36;98868.13;5155463;27;20203;-74
2021/11/30 05:57:40;;;;;;;29.87;17.67;;;;;;;9.53;65.31;98864.63;5153454;27;20621;-75
2021/11/30 06:00:07;;;;;;;27.63;16.83;;;;;;;9.24;65.61;98843.78;5154545;27;20171;-75
2021/11/30 06:02:39;;;;;;;27.17;16.67;;;;;;;9.13;65.93;98835.81;5153362;27;20292;-75
2021/11/30 06:05:05;;;;;;;27.23;16.47;;;;;;;8.31;68.64;98813.75;5154909;27;20205;-75
2021/11/30 06:07:30;;;;;;;29.97;17.53;;;;;;;9.61;64.62;98803.59;5153202;27;20222;-74
2021/11/30 06:09:56;;;;;;;26.13;15.90;;;;;;;9.35;64.75;98787.06;5155225;27;20206;-75
2021/11/30 06:12:22;;;;;;;26.23;16.33;;;;;;;9.53;65.38;98793.56;5136815;27;20196;-74
2021/11/30 06:14:47;;;;;;;28.10;16.60;;;;;;;9.95;65.26;98791.88;5154859;27;20244;-74
2021/11/30 06:17:14;;;;;;;28.97;17.13;;;;;;;9.57;64.75;98771.03;5153934;27;20169;-75
2021/11/30 06:19:39;;;;;;;24.87;14.90;;;;;;;9.40;64.50;98777.72;5155181;27;20541;-72
2021/11/30 06:22:05;;;;;;;28.40;16.97;;;;;;;9.89;64.54;98762.22;5153091;27;20233;-74
2021/11/30 06:24:31;;;;;;;24.33;15.23;;;;;;;9.37;67.02;98748.69;5136133;27;20668;-73
2021/11/30 06:26:56;;;;;;;27.63;16.63;;;;;;;9.63;65.41;98749.22;5153594;27;20187;-72
2021/11/30 06:29:21;;;;;;;22.67;14.47;;;;;;;8.85;66.77;98741.34;5153069;27;20184;-75
2021/11/30 06:31:47;;;;;;;25.43;15.80;;;;;;;9.56;66.46;98755.19;5135718;27;20238;-75
2021/11/30 06:34:12;;;;;;;25.57;14.83;;;;;;;9.13;65.51;98736.50;5153036;27;20241;-72
2021/11/30 06:36:37;;;;;;;20.73;13.90;;;;;;;9.22;65.73;98722.44;5153367;27;20176;-74
2021/11/30 06:39:04;;;;;;;24.10;14.63;;;;;;;9.24;65.99;98744.47;5154745;27;20288;-75
2021/11/30 06:41:29;;;;;;;23.77;13.50;;;;;;;9.66;64.64;98717.03;5156861;27;20172;-73
2021/11/30 06:43:54;;;;;;;19.67;12.33;;;;;;;8.94;67.11;98711.38;5158094;27;20270;-73
2021/11/30 06:46:20;;;;;;;20.17;12.27;;;;;;;8.40;67.81;98704.09;5156700;27;20678;-73
2021/11/30 06:48:45;;;;;;;21.40;13.47;;;;;;;9.24;66.31;98707.19;5158287;27;20172;-72
2021/11/30 06:51:11;;;;;;;18.57;12.10;;;;;;;8.86;66.98;98671.22;5157982;27;20175;-73
2021/11/30 06:53:36;;;;;;;20.30;12.10;;;;;;;8.64;67.65;98684.53;5139253;27;20207;-72
2021/11/30 06:56:02;;;;;;;17.27;9.93;;;;;;;13.18;56.85;98665.66;5156840;27;20186;-73
2021/11/30 06:58:27;;;;;;;19.13;12.00;;;;;;;13.92;54.69;98653.84;5156616;27;20176;-73
2021/11/30 07:00:52;;;;;;;16.97;11.43;;;;;;;14.03;54.99;98678.56;5157846;27;20168;-73
2021/11/30 07:03:21;;;;;;;16.00;9.77;;;;;;;12.90;57.01;98651.41;5158425;27;20264;-73
2021/11/30 07:05:48;;;;;;;14.83;10.07;;;;;;;12.80;57.07;98653.28;5157245;27;20279;-72
2021/11/30 07:08:19;;;;;;;15.77;10.10;;;;;;;13.40;55.60;98649.19;5159104;27;20168;-73
2021/11/30 07:10:48;;;;;;;14.90;9.87;;;;;;;13.93;54.68;98676.97;5158380;27;20550;-73
2021/11/30 07:13:25;;;;;;;13.57;8.47;;;;;;;12.69;63.22;98664.19;5156717;27;20202;-74
2021/11/30 07:15:54;;;;;;;12.57;8.83;;;;;;;13.71;55.31;98643.41;5156448;27;20160;-74
2021/11/30 07:18:19;;;;;;;12.43;9.37;;;;;;;14.36;52.99;98634.03;5156254;27;20176;-74
2021/11/30 07:20:45;;;;;;;13.67;8.20;;;;;;;13.47;54.04;98595.81;5156477;27;20176;-74
2021/11/30 07:23:11;;;;;;;11.83;8.10;;;;;;;13.54;54.44;98645.13;5156783;27;20239;-75
2021/11/30 07:25:36;;;;;;;11.63;8.80;;;;;;;13.15;55.17;98623.09;5156168;27;20645;-74
2021/11/30 07:28:02;;;;;;;12.23;8.33;;;;;;;14.23;53.45;98614.00;5156264;27;20172;-74
2021/11/30 07:30:27;;;;;;;10.97;6.77;;;;;;;13.67;53.95;98617.94;5138923;27;20169;-75
2021/11/30 07:32:53;;;;;;;10.23;7.10;;;;;;;13.04;54.79;98591.16;5156614;27;20310;-74
2021/11/30 07:35:20;;;;;;;9.07;6.67;;;;;;;14.17;53.49;98609.28;5156991;27;20176;-75
2021/11/30 07:37:47;;;;;;;9.50;6.90;;;;;;;14.22;53.15;98612.34;5156107;27;20187;-76
2021/11/30 07:40:12;;;;;;;9.07;6.93;;;;;;;13.76;53.93;98599.09;5157201;27;20169;-75
2021/11/30 07:42:37;;;;;;;8.70;6.70;;;;;;;12.68;55.64;98587.56;5156747;27;20180;-73
2021/11/30 07:45:03;;;;;;;11.37;6.93;;;;;;;13.00;55.29;98577.22;5157277;27;20263;-74
2021/11/30 07:47:28;;;;;;;9.13;6.20;;;;;;;13.13;55.03;98583.06;5156059;27;20223;-74
2021/11/30 07:49:54;;;;;;;9.80;6.37;;;;;;;13.48;54.96;98575.22;5138426;27;20179;-73
2021/11/30 07:52:19;;;;;;;9.13;6.13;;;;;;;13.20;54.81;98540.47;5157648;27;20263;-74
2021/11/30 07:54:48;;;;;;;8.40;5.33;;;;;;;12.96;55.96;98564.28;5158496;27;20294;-73
2021/11/30 07:57:13;;;;;;;7.27;5.73;;;;;;;13.13;55.83;98566.16;5158036;27;20168;-74
2021/11/30 07:59:39;;;;;;;8.13;6.77;;;;;;;13.21;55.40;98563.59;5139179;27;20210;-74
2021/11/30 08:02:06;;;;;;;9.20;6.37;;;;;;;14.07;54.76;98577.16;5158373;27;20173;-73
2021/11/30 08:04:32;;;;;;;8.47;6.07;;;;;;;13.23;55.79;98556.22;5159680;27;20189;-73
2021/11/30 08:06:57;;;;;;;9.07;6.20;;;;;;;12.86;56.16;98563.50;5156603;27;20179;-74
2021/11/30 08:09:23;;;;;;;7.40;5.60;;;;;;;13.37;55.57;98549.47;5157025;27;20172;-73
2021/11/30 08:11:49;;;;;;;6.37;5.60;;;;;;;13.02;56.39;98595.84;5156665;27;20206;-73
2021/11/30 08:14:15;;;;;;;7.57;6.60;;;;;;;13.35;55.49;98549.63;5155725;27;20538;-73
2021/11/30 08:16:42;;;;;;;6.80;5.90;;;;;;;13.57;55.69;98509.97;5155441;27;20179;-73
2021/11/30 08:19:07;;;;;;;7.47;6.40;;;;;;;13.37;56.20;98515.50;5156027;27;20177;-72
2021/11/30 08:21:34;;;;;;;7.27;6.10;;;;;;;13.61;55.72;98530.94;5156828;27;20672;-73
2021/11/30 08:23:59;;;;;;;5.97;5.37;;;;;;;13.47;55.68;98518.09;5156633;27;20192;-74
2021/11/30 08:26:24;;;;;;;6.57;5.60;;;;;;;14.02;55.23;98513.28;5156589;27;20179;-74
2021/11/30 08:28:50;;;;;;;5.90;5.30;;;;;;;13.38;89.20;98543.13;5155687;27;20590;-73
2021/11/30 08:31:15;;;;;;;6.30;5.27;;;;;;;14.31;56.00;98488.78;5138323;27;20211;-73
2021/11/30 08:33:40;;;;;;;6.90;5.17;;;;;;;13.38;56.87;98490.41;5154583;27;20204;-72
2021/11/30 08:36:06;;;;;;;5.33;4.83;;;;;;;13.34;56.58;98472.09;5155998;27;20212;-73
2021/11/30 08:38:31;;;;;;;7.37;5.70;;;;;;;14.41;55.11;98483.28;5154767;27;20176;-73
2021/11/30 08:40:58;;;;;;;5.90;4.93;;;;;;;13.44;56.50;98446.91;5154804;27;20187;-74
2021/11/30 08:43:23;;;;;;;5.20;4.57;;;;;;;13.11;57.66;98471.72;5155819;27;20213;-74
2021/11/30 08:45:49;;;;;;;5.87;4.93;;;;;;;13.55;55.96;98463.72;5154606;27;20169;-74
2021/11/30 08:48:14;;;;;;;5.03;4.60;;;;;;;14.16;55.49;98460.06;5154786;27;20585;-74
2021/11/30 08:50:40;;;;;;;5.10;4.60;;;;;;;13.86;55.68;98443.47;5154903;27;20189;-74
2021/11/30 08:53:05;;;;;;;5.30;4.40;;;;;;;13.63;56.44;98442.34;5156150;27;20605;-74
2021/11/30 08:55:31;;;;;;;5.10;4.13;;;;;;;13.56;56.68;98468.09;5156266;27;20188;-74
2021/11/30 08:57:56;;;;;;;4.77;4.30;;;;;;;13.71;56.03;98458.47;5159697;27;20576;-75
2021/11/30 09:00:25;;;;;;;4.70;4.30;;;;;;;13.91;56.15;98459.94;5161887;27;20181;-75
2021/11/30 09:02:50;;;;;;;5.87;4.87;;;;;;;14.40;55.55;98460.97;5162039;27;20167;-75
2021/11/30 09:05:16;;;;;;;5.17;4.67;;;;;;;14.60;55.58;98450.84;5162762;27;20176;-76
2021/11/30 09:07:42;;;;;;;4.90;4.50;;;;;;;14.19;56.04;98443.63;5159015;27;20251;-75
2021/11/30 09:10:08;;;;;;;4.93;4.43;;;;;;;13.91;56.05;98451.88;5157416;27;20231;-74
2021/11/30 09:12:34;;;;;;;4.40;4.00;;;;;;;14.09;56.45;98462.53;5159768;27;20244;-73
2021/11/30 09:14:59;;;;;;;4.63;4.20;;;;;;;15.11;54.77;98448.06;5155377;27;20598;-74
2021/11/30 09:17:25;;;;;;;3.93;3.50;;;;;;;14.47;55.62;98492.56;5137760;27;20172;-74
2021/11/30 09:19:50;;;;;;;4.73;3.27;;;;;;;14.77;55.30;98472.34;5154720;27;20181;-74
2021/11/30 09:22:16;;;;;;;5.10;3.67;;;;;;;14.94;54.78;98469.53;5155716;27;20224;-75
2021/11/30 09:24:42;;;;;;;4.67;3.40;;;;;;;15.31;53.77;98439.50;5155732;27;20184;-73
2021/11/30 09:27:07;;;;;;;4.70;3.60;;;;;;;15.84;53.26;98437.25;5154133;27;20198;-73
2021/11/30 09:29:32;;;;;;;3.63;2.97;;;;;;;15.63;53.33;98422.53;5155395;27;20707;-75
2021/11/30 09:31:58;;;;;;;3.43;3.10;;;;;;;15.52;53.42;98438.13;5153951;27;20222;-74
2021/11/30 09:34:24;;;;;;;3.30;3.00;;;;;;;15.78;53.37;98430.72;5155675;27;20200;-75
2021/11/30 09:36:51;;;;;;;6.17;3.03;;;;;;;15.78;53.88;98424.50;5154402;27;20261;-74
2021/11/30 09:39:17;;;;;;;6.57;2.63;;;;;;;15.79;53.56;98416.25;5154497;27;20181;-74
2021/11/30 09:41:43;;;;;;;8.73;2.97;;;;;;;15.61;54.37;98413.78;5155355;27;20190;-74
2021/11/30 09:44:10;;;;;;;3.47;2.23;;;;;;;16.13;53.44;98393.59;5155000;27;20243;-74
2021/11/30 09:46:36;;;;;;;3.80;2.00;;;;;;;16.10;53.83;98397.47;5155485;27;20600;-75
2021/11/30 09:49:01;;;;;;;5.07;2.50;;;;;;;15.58;54.18;98389.91;5155116;27;20185;-74
2021/11/30 09:51:27;;;;;;;4.60;2.20;;;;;;;15.00;55.26;98425.91;5153720;27;20265;-74
2021/11/30 09:53:52;;;;;;;5.53;2.03;;;;;;;14.77;55.74;98415.97;5136641;27;20245;-74
2021/11/30 09:56:17;;;;;;;6.13;1.67;;;;;;;15.38;55.23;98382.38;5155003;27;20193;-75
2021/11/30 09:58:43;;;;;;;10.90;2.10;;;;;;;15.99;54.25;98383.59;5154011;27;20632;-75
2021/11/30 10:01:11;;;;;;;11.87;2.50;;;;;;;14.96;56.19;98368.16;5155160;27;20253;-75
2021/11/30 10:03:36;;;;;;;6.97;2.07;;;;;;;15.75;54.87;98369.22;5155242;27;20658;-74
2021/11/30 10:06:01;;;;;;;10.23;1.73;;;;;;;15.20;55.47;98372.66;5153688;27;20218;-74
2021/11/30 10:08:35;;;;;;;10.47;2.00;;;;;;;15.61;55.28;98386.06;5154156;27;20319;-73
2021/11/30 10:11:03;;;;;;;6.00;1.77;;;;;;;15.86;54.93;98376.06;5154995;27;20178;-74
2021/11/30 10:13:28;;;;;;;10.17;2.03;;;;;;;15.55;55.39;98349.91;5154663;27;20202;-75
2021/11/30 10:16:06;;;;;;;8.53;1.60;;;;;;;15.94;55.02;98360.72;5139488;27;20193;-75
2021/11/30 10:18:34;;;;;;;9.93;2.07;;;;;;;16.34;54.24;98361.50;5159543;27;20182;-74
2021/11/30 10:21:02;;;;;;;10.07;2.23;;;;;;;15.91;55.56;98357.53;5158756;27;20231;-75
2021/11/30 10:23:30;;;;;;;9.03;2.10;;;;;;;15.38;55.70;98336.69;5158969;27;20197;-75
2021/11/30 10:26:03;;;;;;;11.10;1.83;;;;;;;16.22;54.66;98346.78;5159611;27;20167;-75
2021/11/30 10:28:31;;;;;;;12.77;2.83;;;;;;;15.15;56.22;98350.81;5158068;27;20158;-75
2021/11/30 10:30:56;;;;;;;9.50;1.93;;;;;;;16.06;54.80;98325.38;5157740;27;20639;-76
2021/11/30 10:33:23;;;;;;;11.70;2.83;;;;;;;16.11;55.09;98326.50;5158270;27;20210;-76
2021/11/30 10:35:54;;;;;;;11.60;2.50;;;;;;;16.05;54.95;98337.97;5157459;27;20179;-76
2021/11/30 10:38:22;;;;;;;10.07;2.23;;;;;;;14.27;58.11;98376.59;5157951;27;20628;-75
2021/11/30 10:40:48;;;;;;;12.20;2.00;;;;;;;15.50;55.89;98343.38;5157749;27;20191;-76
2021/11/30 10:43:13;;;;;;;15.93;2.63;;;;;;;14.05;58.00;98365.44;5158935;27;20199;-76
2021/11/30 10:45:44;;;;;;;12.60;2.30;;;;;;;15.39;56.95;98349.13;5166460;27;20199;-76
2021/11/30 10:48:21;;;;;;;11.40;2.00;;;;;;;15.86;55.03;98357.22;5162274;27;20522;-76
2021/11/30 10:50:49;;;;;;;9.60;2.77;;;;;;;15.48;55.80;98345.38;5158303;27;20221;-75
2021/11/30 10:53:24;;;;;;;17.47;2.23;;;;;;;14.93;56.71;98341.63;5158342;27;20194;-76
2021/11/30 10:55:54;;;;;;;13.63;2.43;;;;;;;15.23;57.22;98329.31;5157450;27;20220;-73
2021/11/30 10:58:21;;;;;;;12.33;2.53;;;;;;;15.24;56.51;98340.94;5159757;27;20214;-75
2021/11/30 11:00:47;;;;;;;12.07;2.10;;;;;;;15.10;57.41;98334.38;5158169;27;20188;-74
2021/11/30 11:03:17;;;;;;;13.43;2.77;;;;;;;15.10;57.21;98328.16;5157595;27;20545;-74
2021/11/30 11:05:46;;;;;;;8.20;2.13;;;;;;;15.53;56.61;98310.75;5157863;27;20312;-72
2021/11/30 11:08:16;;;;;;;11.73;2.13;;;;;;;13.89;58.46;98295.69;5157782;27;20175;-73
2021/11/30 11:10:48;;;;;;;8.60;2.70;;;;;;;13.88;59.10;98306.59;5156665;27;20175;-75
2021/11/30 11:13:28;;;;;;;13.77;2.60;;;;;;;14.75;58.14;98321.31;5157339;27;20203;-74
2021/11/30 11:15:56;;;;;;;10.97;2.37;;;;;;;14.14;58.74;98315.38;5158149;27;20179;-74
2021/11/30 11:18:24;;;;;;;9.40;2.20;;;;;;;14.05;59.01;98301.09;5156538;27;20178;-72
2021/11/30 11:20:52;;;;;;;12.93;2.13;;;;;;;13.76;58.35;98314.94;5156088;27;20180;-72
2021/11/30 11:23:21;;;;;;;10.87;1.97;;;;;;;14.14;57.46;98298.44;5157266;27;20195;-72
2021/11/30 11:25:47;;;;;;;9.60;2.00;;;;;;;14.05;57.47;98282.31;5138598;27;20663;-72
2021/11/30 11:28:12;;;;;;;13.37;2.23;;;;;;;14.62;55.74;98285.09;5156093;27;20175;-72
2021/11/30 11:30:39;;;;;;;12.20;2.43;;;;;;;14.08;56.23;98290.03;5156573;27;20201;-72
2021/11/30 11:33:04;;;;;;;12.50;2.27;;;;;;;13.42;56.11;98319.47;5157065;27;20199;-69